Time;durP1;ratioP1;P1;durP2;ratioP2;P2;SDS_P1;SDS_P2;PMS_P1;PMS_P2;Temp;Humidity;BMP_temperature;BMP_pressure;BME280_temperature;BME280_humidity;BME280_pressure;Samples;Min_cycle;Max_cycle;Signal;HPM_P1;HPM_P2
2024/04/02 00:01:02;;;;;;;1.80;0.60;;;7.50;4.30;;;;;;5034092;28;20406;-69
2024/04/02 00:03:27;;;;;;;2.20;0.80;;;7.70;3.80;;;;;;5034105;28;20958;-69
2024/04/02 00:05:53;;;;;;;1.50;0.50;;;7.80;3.00;;;;;;5034037;28;20419;-68
2024/04/02 00:08:18;;;;;;;3.20;0.50;;;7.80;2.40;;;;;;5033941;28;20210;-69
2024/04/02 00:10:44;;;;;;;1.90;0.50;;;8.00;1.60;;;;;;5034491;28;20188;-69
2024/04/02 00:13:09;;;;;;;2.10;0.70;;;8.00;1.00;;;;;;5033845;28;20325;-69
2024/04/02 00:15:35;;;;;;;1.80;0.60;;;8.10;1.00;;;;;;5034063;28;20174;-68
2024/04/02 00:18:01;;;;;;;1.80;0.53;;;8.00;1.00;;;;;;5033844;28;20214;-69
2024/04/02 00:20:26;;;;;;;3.13;0.73;;;7.90;1.00;;;;;;5033608;28;20173;-69
2024/04/02 00:22:52;;;;;;;1.80;0.73;;;7.90;1.00;;;;;;5034049;28;20202;-69
2024/04/02 00:25:17;;;;;;;1.40;0.40;;;7.90;1.00;;;;;;5033844;28;20690;-69
2024/04/02 00:27:43;;;;;;;1.77;0.73;;;7.90;1.00;;;;;;5033527;28;20208;-68
2024/04/02 00:30:09;;;;;;;1.90;0.67;;;7.90;1.00;;;;;;5033722;28;20223;-69
2024/04/02 00:32:35;;;;;;;2.80;0.73;;;7.80;1.00;;;;;;5033165;28;20193;-69
2024/04/02 00:35:00;;;;;;;1.60;0.57;;;7.80;1.00;;;;;;5033489;28;20423;-69
2024/04/02 00:37:26;;;;;;;1.67;0.70;;;7.80;1.00;;;;;;5033443;28;20653;-68
2024/04/02 00:39:51;;;;;;;1.70;0.60;;;7.80;1.00;;;;;;5033256;28;20206;-69
2024/04/02 00:42:17;;;;;;;2.33;0.60;;;7.90;1.00;;;;;;5033231;28;20708;-68
2024/04/02 00:44:43;;;;;;;1.80;0.57;;;7.90;1.00;;;;;;5034914;28;20563;-70
2024/04/02 00:47:10;;;;;;;2.10;0.83;;;8.10;1.00;;;;;;5036638;28;20192;-69
2024/04/02 00:49:37;;;;;;;1.90;0.80;;;8.20;1.00;;;;;;5036199;28;20180;-69
2024/04/02 00:52:03;;;;;;;1.70;0.60;;;8.40;1.00;;;;;;5037771;28;20509;-70
2024/04/02 00:54:31;;;;;;;1.70;0.60;;;8.40;1.00;;;;;;5036171;28;20829;-69
2024/04/02 00:56:56;;;;;;;1.50;0.50;;;8.50;1.00;;;;;;5036255;28;20412;-69
2024/04/02 00:59:22;;;;;;;1.83;0.70;;;8.60;1.00;;;;;;5037421;28;20420;-69
2024/04/02 01:01:50;;;;;;;1.50;0.50;;;8.70;1.00;;;;;;5035850;28;20178;-69
2024/04/02 01:04:17;;;;;;;2.20;0.70;;;8.80;1.00;;;;;;5035777;28;20170;-68
2024/04/02 01:06:43;;;;;;;1.70;0.53;;;8.90;1.00;;;;;;5034999;28;20505;-69
2024/04/02 01:09:08;;;;;;;2.00;0.67;;;8.90;1.00;;;;;;5033047;28;20504;-70
2024/04/02 01:11:36;;;;;;;2.23;0.87;;;9.00;1.00;;;;;;5032707;28;20420;-69
2024/04/02 01:14:01;;;;;;;2.33;0.67;;;9.00;1.00;;;;;;5031146;28;20221;-69
2024/04/02 01:16:27;;;;;;;1.60;0.60;;;9.00;1.00;;;;;;5014667;28;20437;-69
2024/04/02 01:18:53;;;;;;;1.80;0.60;;;8.90;1.00;;;;;;5014298;28;20661;-70
2024/04/02 01:21:20;;;;;;;1.70;0.60;;;8.90;1.00;;;;;;5032699;28;20424;-69
2024/04/02 01:23:46;;;;;;;1.70;0.50;;;8.90;1.00;;;;;;5032383;28;20297;-69
2024/04/02 01:26:12;;;;;;;2.77;0.90;;;8.80;1.00;;;;;;5032410;28;20450;-69
2024/04/02 01:28:38;;;;;;;1.80;0.60;;;8.80;1.00;;;;;;5033032;28;20958;-69
2024/04/02 01:31:04;;;;;;;1.60;0.63;;;8.70;1.00;;;;;;5032198;28;20853;-70
2024/04/02 01:33:30;;;;;;;1.67;0.60;;;8.70;1.00;;;;;;5032240;28;20471;-69
2024/04/02 01:35:55;;;;;;;1.73;0.57;;;8.70;1.00;;;;;;5032153;28;20188;-69
2024/04/02 01:38:21;;;;;;;1.60;0.60;;;8.60;1.00;;;;;;5032010;28;20908;-68
2024/04/02 01:40:46;;;;;;;1.50;0.50;;;8.70;1.00;;;;;;5032181;28;20233;-69
2024/04/02 01:43:12;;;;;;;1.40;0.50;;;8.70;1.00;;;;;;5031868;28;20236;-69
2024/04/02 01:45:38;;;;;;;1.93;0.60;;;8.60;1.00;;;;;;5031915;28;20235;-69
2024/04/02 01:48:04;;;;;;;1.40;0.40;;;8.60;1.00;;;;;;5031898;28;20505;-69
2024/04/02 01:50:29;;;;;;;1.80;0.60;;;8.60;1.00;;;;;;5031649;28;20194;-69
2024/04/02 01:52:55;;;;;;;2.07;1.03;;;8.70;1.00;;;;;;5013790;28;20448;-69
2024/04/02 01:55:21;;;;;;;1.50;0.50;;;8.70;1.00;;;;;;5031991;28;20182;-69
2024/04/02 01:57:47;;;;;;;1.70;0.70;;;8.70;1.00;;;;;;5031726;28;20190;-69
2024/04/02 02:00:14;;;;;;;1.60;0.60;;;8.80;1.00;;;;;;5031560;28;20464;-69
2024/04/02 02:02:40;;;;;;;1.63;0.50;;;8.80;1.00;;;;;;5031673;28;20315;-70
2024/04/02 02:05:07;;;;;;;1.70;0.63;;;8.80;1.00;;;;;;5014166;28;20421;-69
2024/04/02 02:07:32;;;;;;;1.83;0.67;;;8.80;1.00;;;;;;5031776;28;20421;-69
2024/04/02 02:09:58;;;;;;;1.47;0.47;;;8.80;1.00;;;;;;5031246;28;20928;-69
2024/04/02 02:12:24;;;;;;;1.90;0.70;;;8.80;1.00;;;;;;5031470;28;20646;-69
2024/04/02 02:14:49;;;;;;;1.73;0.77;;;8.80;1.00;;;;;;5032427;28;20202;-69
2024/04/02 02:17:15;;;;;;;2.23;0.50;;;8.90;1.00;;;;;;5031391;28;20174;-69
2024/04/02 02:19:40;;;;;;;1.73;0.60;;;8.90;1.00;;;;;;5030591;28;20182;-70
2024/04/02 02:22:06;;;;;;;2.00;0.70;;;8.80;1.00;;;;;;5031226;28;20268;-69
2024/04/02 02:24:32;;;;;;;2.33;0.57;;;8.80;1.00;;;;;;5031377;28;20247;-69
2024/04/02 02:26:58;;;;;;;2.37;0.50;;;8.80;1.00;;;;;;5031063;28;20428;-69
2024/04/02 02:29:25;;;;;;;2.77;0.63;;;8.80;1.00;;;;;;5031154;28;20539;-69
2024/04/02 02:31:52;;;;;;;1.70;0.63;;;8.90;1.00;;;;;;5012746;28;20459;-70
2024/04/02 02:34:17;;;;;;;1.50;0.50;;;8.80;1.00;;;;;;5030984;28;20467;-69
2024/04/02 02:36:43;;;;;;;3.03;0.60;;;8.90;1.00;;;;;;5030936;28;20422;-68
2024/04/02 02:39:10;;;;;;;1.60;0.67;;;8.90;1.00;;;;;;5031393;28;20637;-69
2024/04/02 02:41:36;;;;;;;1.77;0.70;;;8.90;1.00;;;;;;5030960;28;20702;-70
2024/04/02 02:44:02;;;;;;;1.80;0.83;;;8.90;1.00;;;;;;5030686;28;20449;-70
2024/04/02 02:46:28;;;;;;;1.80;0.60;;;8.90;1.00;;;;;;5031097;28;20567;-69
2024/04/02 02:48:53;;;;;;;1.63;0.53;;;8.90;1.00;;;;;;5030768;28;20425;-69
2024/04/02 02:51:19;;;;;;;2.00;0.60;;;8.90;1.00;;;;;;5031062;28;20517;-68
2024/04/02 02:53:46;;;;;;;1.50;0.50;;;8.90;1.00;;;;;;5030780;28;20519;-69
2024/04/02 02:56:11;;;;;;;1.50;0.60;;;8.90;1.00;;;;;;5031192;28;20534;-69
2024/04/02 02:58:37;;;;;;;1.93;0.77;;;8.80;1.00;;;;;;5030443;28;20413;-69
2024/04/02 03:01:05;;;;;;;1.50;0.50;;;8.80;1.00;;;;;;5030471;28;20174;-69
2024/04/02 03:03:31;;;;;;;1.50;0.43;;;8.90;1.00;;;;;;5012809;28;20209;-69
2024/04/02 03:05:57;;;;;;;4.90;0.80;;;8.90;1.00;;;;;;5030798;28;20421;-70
2024/04/02 03:08:23;;;;;;;2.53;0.80;;;8.90;1.00;;;;;;5030640;28;20178;-69
2024/04/02 03:11:00;;;;;;;1.80;0.60;;;8.90;1.00;;;;;;5030640;28;20292;-69
2024/04/02 03:13:26;;;;;;;1.60;0.60;;;8.80;1.00;;;;;;5030429;28;20510;-69
2024/04/02 03:15:51;;;;;;;1.50;0.50;;;8.80;1.00;;;;;;5030302;28;20428;-69
2024/04/02 03:18:17;;;;;;;2.00;0.63;;;8.80;1.00;;;;;;5030500;28;20182;-69
2024/04/02 03:20:42;;;;;;;2.60;0.60;;;8.70;1.00;;;;;;5030583;28;20230;-70
2024/04/02 03:23:10;;;;;;;1.60;0.50;;;8.70;1.00;;;;;;5030464;28;20292;-69
2024/04/02 03:25:36;;;;;;;2.20;0.77;;;8.70;1.00;;;;;;5030496;28;20255;-69
2024/04/02 03:28:02;;;;;;;1.60;0.60;;;8.60;1.00;;;;;;5012436;28;20483;-69
2024/04/02 03:30:27;;;;;;;1.50;0.60;;;8.50;1.00;;;;;;5033000;28;20415;-69
2024/04/02 03:32:53;;;;;;;1.80;0.63;;;8.50;1.00;;;;;;5034434;28;20194;-69
2024/04/02 03:35:18;;;;;;;1.50;0.50;;;8.40;1.00;;;;;;5034469;28;20182;-69
2024/04/02 03:37:44;;;;;;;1.80;0.70;;;8.40;1.00;;;;;;5034482;28;20181;-68
2024/04/02 03:40:09;;;;;;;1.50;0.50;;;8.40;1.00;;;;;;5033939;28;20258;-69
2024/04/02 03:42:35;;;;;;;1.60;0.60;;;8.40;1.00;;;;;;5034993;23;20234;-70
2024/04/02 03:45:01;;;;;;;1.60;0.60;;;8.40;1.00;;;;;;5017153;28;20213;-70
2024/04/02 03:47:26;;;;;;;1.70;0.83;;;8.40;1.00;;;;;;5024597;28;20222;-72
2024/04/02 03:49:52;;;;;;;1.50;0.50;;;8.40;1.00;;;;;;5023825;28;20478;-70
2024/04/02 03:52:18;;;;;;;1.53;0.63;;;8.50;1.00;;;;;;5022834;28;20621;-71
2024/04/02 03:54:43;;;;;;;1.50;0.50;;;8.50;1.00;;;;;;5022592;28;20214;-70
2024/04/02 03:57:09;;;;;;;1.70;0.60;;;8.50;1.00;;;;;;5022815;28;20179;-70
2024/04/02 03:59:35;;;;;;;4.70;0.60;;;8.50;1.00;;;;;;5005093;28;20178;-71
2024/04/02 04:02:01;;;;;;;1.70;0.70;;;8.40;1.00;;;;;;5022228;28;20184;-71
2024/04/02 04:04:27;;;;;;;1.50;0.60;;;8.40;1.00;;;;;;5005335;28;20441;-70
2024/04/02 04:06:55;;;;;;;1.50;0.50;;;8.40;1.00;;;;;;5003588;28;20419;-71
2024/04/02 04:09:21;;;;;;;1.70;0.60;;;8.30;1.00;;;;;;5001752;28;20190;-71
2024/04/02 04:11:47;;;;;;;1.80;0.77;;;8.20;1.00;;;;;;5021461;28;20433;-70
2024/04/02 04:14:13;;;;;;;1.50;0.50;;;8.00;1.00;;;;;;5005612;28;20990;-70
2024/04/02 04:16:38;;;;;;;1.73;0.50;;;8.00;1.00;;;;;;5005673;28;20504;-69
2024/04/02 04:19:04;;;;;;;1.60;0.63;;;8.00;1.00;;;;;;5006701;28;20527;-70
2024/04/02 04:21:30;;;;;;;1.93;0.70;;;8.10;1.00;;;;;;5006983;28;20173;-71
2024/04/02 04:23:56;;;;;;;1.60;0.60;;;8.10;1.00;;;;;;5005141;28;20263;-70
2024/04/02 04:26:22;;;;;;;1.90;0.60;;;8.20;1.00;;;;;;5022767;28;20419;-69
2024/04/02 04:28:47;;;;;;;1.50;0.50;;;8.20;1.00;;;;;;5023975;28;20195;-71
2024/04/02 04:31:13;;;;;;;1.60;0.60;;;8.30;1.00;;;;;;5005197;28;20195;-70
2024/04/02 04:33:39;;;;;;;1.57;0.60;;;8.30;1.00;;;;;;5021834;28;20627;-69
2024/04/02 04:36:04;;;;;;;4.33;0.70;;;8.40;1.00;;;;;;5020328;28;20192;-70
2024/04/02 04:38:30;;;;;;;3.73;0.80;;;8.30;1.00;;;;;;5003037;28;20190;-70
2024/04/02 04:40:56;;;;;;;1.50;0.43;;;8.30;1.00;;;;;;5018000;28;20183;-72
2024/04/02 04:43:27;;;;;;;2.47;0.70;;;8.30;1.00;;;;;;5001641;28;20249;-71
2024/04/02 04:45:57;;;;;;;1.40;0.40;;;8.20;1.00;;;;;;5019668;28;20594;-71
2024/04/02 04:48:24;;;;;;;2.00;0.90;;;8.20;1.00;;;;;;5024387;28;20414;-71
2024/04/02 04:50:57;;;;;;;5.63;0.50;;;8.10;1.00;;;;;;5021234;28;20422;-72
2024/04/02 04:53:26;;;;;;;1.50;0.60;;;8.20;1.00;;;;;;5022028;28;20459;-71
2024/04/02 04:56:00;;;;;;;1.70;0.70;;;8.20;1.00;;;;;;5023838;28;20414;-71
2024/04/02 04:58:27;;;;;;;1.60;0.53;;;8.30;1.00;;;;;;5022889;28;20417;-70
2024/04/02 05:00:56;;;;;;;2.10;0.87;;;8.30;1.00;;;;;;5022428;28;20413;-70
2024/04/02 05:03:21;;;;;;;1.83;0.50;;;8.40;1.00;;;;;;5021097;28;20475;-71
2024/04/02 05:05:48;;;;;;;2.03;0.90;;;8.40;1.00;;;;;;5007869;28;20441;-71
2024/04/02 05:08:26;;;;;;;1.50;0.57;;;8.60;1.00;;;;;;5024907;28;20182;-69
2024/04/02 05:10:53;;;;;;;2.07;0.73;;;8.60;1.00;;;;;;5024708;28;20439;-72
2024/04/02 05:13:20;;;;;;;1.50;0.50;;;8.60;1.00;;;;;;5006259;28;20461;-69
2024/04/02 05:15:48;;;;;;;1.70;0.60;;;8.60;1.00;;;;;;5023946;28;20505;-71
2024/04/02 05:18:14;;;;;;;1.70;0.70;;;8.60;1.00;;;;;;5037715;28;20906;-71
2024/04/02 05:20:40;;;;;;;1.70;0.60;;;8.60;1.00;;;;;;5042130;28;20429;-71
2024/04/02 05:23:06;;;;;;;1.70;0.73;;;8.70;1.00;;;;;;5037423;28;20205;-71
2024/04/02 05:25:32;;;;;;;1.70;0.60;;;8.70;1.00;;;;;;5020162;28;20424;-70
2024/04/02 05:28:00;;;;;;;2.97;0.90;;;8.70;1.00;;;;;;5020397;28;20460;-73
2024/04/02 05:30:26;;;;;;;1.87;0.67;;;8.70;1.00;;;;;;5042911;28;20417;-70
2024/04/02 05:32:54;;;;;;;1.40;0.40;;;8.80;1.00;;;;;;5024897;28;20452;-70
2024/04/02 05:35:21;;;;;;;1.80;0.60;;;8.80;1.00;;;;;;5040123;28;20421;-70
2024/04/02 05:37:51;;;;;;;2.37;0.53;;;8.80;1.00;;;;;;5036097;28;20864;-69
2024/04/02 05:40:17;;;;;;;1.70;0.63;;;8.80;1.00;;;;;;5020122;28;20436;-70
2024/04/02 05:42:43;;;;;;;2.40;1.10;;;8.80;1.00;;;;;;5038636;28;20962;-70
2024/04/02 05:45:09;;;;;;;1.70;0.70;;;8.90;1.00;;;;;;5039340;28;20423;-70
2024/04/02 05:47:34;;;;;;;1.90;0.80;;;9.00;1.00;;;;;;5024183;28;20261;-71
2024/04/02 05:50:00;;;;;;;1.97;0.73;;;9.00;1.00;;;;;;5039626;28;20182;-71
2024/04/02 05:52:26;;;;;;;2.50;0.80;;;9.00;1.00;;;;;;5038777;28;20225;-70
2024/04/02 05:54:51;;;;;;;2.63;0.90;;;9.00;1.00;;;;;;5037356;28;20221;-71
2024/04/02 05:57:17;;;;;;;2.77;0.77;;;8.90;1.00;;;;;;5036379;28;20425;-70
2024/04/02 05:59:43;;;;;;;1.77;0.60;;;9.00;1.00;;;;;;5017757;28;20182;-71
2024/04/02 06:02:10;;;;;;;1.70;0.70;;;9.00;1.00;;;;;;5017602;28;20641;-71
2024/04/02 06:04:36;;;;;;;3.83;0.60;;;9.10;1.00;;;;;;5034935;28;20907;-70
2024/04/02 06:07:01;;;;;;;2.10;0.60;;;9.00;1.00;;;;;;5034505;28;20504;-69
2024/04/02 06:09:27;;;;;;;2.03;1.13;;;9.00;1.00;;;;;;5016256;28;20834;-71
2024/04/02 06:11:52;;;;;;;2.03;0.50;;;8.90;1.00;;;;;;5034280;28;20196;-69
2024/04/02 06:14:18;;;;;;;1.80;0.77;;;9.00;1.00;;;;;;5038149;28;20235;-70
2024/04/02 06:16:47;;;;;;;4.83;0.70;;;8.90;1.00;;;;;;5037657;28;20192;-70
2024/04/02 06:19:12;;;;;;;1.67;0.57;;;8.80;1.00;;;;;;5036316;28;20198;-71
2024/04/02 06:21:38;;;;;;;1.80;0.60;;;9.00;1.00;;;;;;5037478;28;20420;-72
2024/04/02 06:24:04;;;;;;;1.50;0.50;;;9.10;1.00;;;;;;5021033;28;20206;-69
2024/04/02 06:26:29;;;;;;;3.07;0.87;;;9.10;1.00;;;;;;5020214;28;20272;-70
2024/04/02 06:28:55;;;;;;;1.60;0.60;;;9.00;1.00;;;;;;5038333;28;20728;-70
2024/04/02 06:31:21;;;;;;;1.50;0.53;;;9.00;1.00;;;;;;5021532;28;20190;-69
2024/04/02 06:33:46;;;;;;;1.50;0.40;;;9.00;1.00;;;;;;5020106;28;20252;-71
2024/04/02 06:36:12;;;;;;;2.43;0.70;;;9.00;1.00;;;;;;5033648;28;20178;-70
2024/04/02 06:38:38;;;;;;;1.87;0.60;;;9.00;1.00;;;;;;5004534;28;20183;-70
2024/04/02 06:41:03;;;;;;;1.50;0.50;;;9.10;1.00;;;;;;4996398;28;20938;-71
2024/04/02 06:43:29;;;;;;;1.47;0.47;;;9.20;1.00;;;;;;4996625;28;20264;-70
2024/04/02 06:45:59;;;;;;;1.87;0.60;;;9.30;1.00;;;;;;5013846;28;20194;-71
2024/04/02 06:48:25;;;;;;;1.70;0.60;;;9.40;1.00;;;;;;4979911;28;20183;-70
2024/04/02 06:50:58;;;;;;;1.60;0.40;;;9.40;1.00;;;;;;5013211;28;20444;-70
2024/04/02 06:53:28;;;;;;;1.50;0.50;;;9.40;1.00;;;;;;5013137;28;20467;-69
2024/04/02 06:56:01;;;;;;;1.60;0.50;;;9.30;1.00;;;;;;5007590;28;20790;-70
2024/04/02 06:58:28;;;;;;;1.90;0.60;;;9.20;1.00;;;;;;4991195;28;20424;-69
2024/04/02 07:00:54;;;;;;;1.60;0.60;;;9.40;1.00;;;;;;5010210;28;20426;-70
2024/04/02 07:03:21;;;;;;;1.80;0.50;;;9.60;1.00;;;;;;5005972;28;20779;-71
2024/04/02 07:05:48;;;;;;;6.50;0.73;;;10.00;1.00;;;;;;5013494;28;20190;-70
2024/04/02 07:08:14;;;;;;;1.87;0.70;;;10.80;1.00;;;;;;5008572;28;20437;-71
2024/04/02 07:10:44;;;;;;;1.70;0.67;;;11.10;1.00;;;;;;4985144;28;20451;-72
2024/04/02 07:13:14;;;;;;;1.60;0.60;;;11.10;1.00;;;;;;5010021;28;20287;-71
2024/04/02 07:15:41;;;;;;;1.60;0.70;;;11.40;1.00;;;;;;4993951;28;20440;-70
2024/04/02 07:18:08;;;;;;;1.50;0.50;;;11.50;1.00;;;;;;4989655;28;20478;-71
2024/04/02 07:20:34;;;;;;;3.40;0.77;;;11.30;1.00;;;;;;5016939;28;20426;-72
2024/04/02 07:23:00;;;;;;;1.53;0.53;;;11.00;1.00;;;;;;4999748;28;20467;-72
2024/04/02 07:25:28;;;;;;;2.83;0.90;;;11.00;1.00;;;;;;5010784;28;20420;-70
2024/04/02 07:27:53;;;;;;;3.47;1.07;;;10.70;1.00;;;;;;5018751;28;20406;-71
2024/04/02 07:30:19;;;;;;;2.63;0.60;;;10.40;1.00;;;;;;5022125;28;20410;-69
2024/04/02 07:32:51;;;;;;;1.93;0.60;;;10.00;1.00;;;;;;5005428;28;20224;-71
2024/04/02 07:35:20;;;;;;;1.73;0.80;;;9.80;1.00;;;;;;4985151;28;20433;-70
2024/04/02 07:37:46;;;;;;;2.17;0.80;;;9.90;1.00;;;;;;4999685;28;20473;-70
2024/04/02 07:40:11;;;;;;;3.07;0.63;;;9.80;1.00;;;;;;5001550;28;20482;-70
2024/04/02 07:42:37;;;;;;;1.70;0.60;;;9.60;1.00;;;;;;4998466;28;20697;-70
2024/04/02 07:45:03;;;;;;;1.63;0.70;;;9.40;1.00;;;;;;5016121;28;20520;-71
2024/04/02 07:47:34;;;;;;;2.00;0.73;;;9.30;2.30;;;;;;5015952;28;20262;-72
2024/04/02 07:50:03;;;;;;;2.07;0.63;;;9.30;4.20;;;;;;5014775;28;20422;-71
2024/04/02 07:52:29;;;;;;;1.70;0.73;;;9.30;5.00;;;;;;5015530;28;20444;-70
2024/04/02 07:54:54;;;;;;;2.17;0.70;;;9.30;5.10;;;;;;4995449;28;20529;-70
2024/04/02 07:57:20;;;;;;;1.60;0.60;;;9.40;5.10;;;;;;5014481;28;20220;-71
2024/04/02 07:59:45;;;;;;;1.43;0.47;;;9.30;5.90;;;;;;4997169;28;20189;-71
2024/04/02 08:02:11;;;;;;;1.67;0.77;;;9.20;7.20;;;;;;4998623;28;20282;-71
2024/04/02 08:04:37;;;;;;;1.67;0.77;;;9.20;5.80;;;;;;5016158;28;20270;-72
2024/04/02 08:07:02;;;;;;;2.57;1.00;;;9.30;7.10;;;;;;5016084;28;20628;-71
2024/04/02 08:09:28;;;;;;;1.50;0.50;;;9.40;7.10;;;;;;5016352;28;20219;-71
2024/04/02 08:11:54;;;;;;;1.80;0.80;;;9.50;5.80;;;;;;5017359;28;20195;-70
2024/04/02 08:14:23;;;;;;;3.10;0.80;;;9.70;5.80;;;;;;5019021;28;20470;-71
2024/04/02 08:16:49;;;;;;;3.13;0.80;;;9.90;5.90;;;;;;5021213;28;20424;-70
2024/04/02 08:19:14;;;;;;;2.90;0.67;;;10.70;1.20;;;;;;5023718;28;20765;-71
2024/04/02 08:21:40;;;;;;;3.20;1.27;;;11.30;1.60;;;;;;5023251;28;20184;-70
2024/04/02 08:24:06;;;;;;;1.80;0.83;;;11.70;1.00;;;;;;5006625;28;20576;-70
2024/04/02 08:26:31;;;;;;;2.67;1.10;;;12.00;1.00;;;;;;5024561;28;20238;-71
2024/04/02 08:28:57;;;;;;;2.27;1.00;;;12.50;1.00;;;;;;5006469;28;20252;-71
2024/04/02 08:31:23;;;;;;;2.37;1.10;;;11.50;1.00;;;;;;5004885;28;20186;-70
2024/04/02 08:33:48;;;;;;;2.70;0.77;;;11.40;1.00;;;;;;5004715;28;20208;-71
2024/04/02 08:36:15;;;;;;;2.17;0.80;;;11.10;1.00;;;;;;5020723;28;20180;-71
2024/04/02 08:38:40;;;;;;;3.00;0.70;;;11.10;1.00;;;;;;5004025;28;20235;-73
2024/04/02 08:41:07;;;;;;;3.43;0.90;;;11.00;1.00;;;;;;5021081;28;20447;-72
2024/04/02 08:43:37;;;;;;;2.70;0.90;;;11.00;1.00;;;;;;5003041;28;20219;-69
2024/04/02 08:46:04;;;;;;;6.73;1.10;;;11.80;1.00;;;;;;5020958;28;20426;-70
2024/04/02 08:48:29;;;;;;;2.40;1.37;;;11.50;1.00;;;;;;5002765;28;20779;-71
2024/04/02 08:50:55;;;;;;;2.90;1.20;;;11.40;1.00;;;;;;5001998;28;20426;-71
2024/04/02 08:53:25;;;;;;;3.67;1.47;;;11.40;1.00;;;;;;5018178;28;20210;-71
2024/04/02 08:55:51;;;;;;;6.57;1.10;;;11.40;1.00;;;;;;5019111;28;20419;-70
2024/04/02 08:58:17;;;;;;;7.70;1.20;;;11.10;1.00;;;;;;5000414;28;20495;-70
2024/04/02 09:00:42;;;;;;;4.90;1.13;;;11.10;1.00;;;;;;5017785;28;20764;-70
2024/04/02 09:03:10;;;;;;;3.33;0.90;;;11.20;1.00;;;;;;5017457;28;20431;-70
2024/04/02 09:05:36;;;;;;;2.13;1.13;;;11.00;1.00;;;;;;5017427;28;20849;-70
2024/04/02 09:08:06;;;;;;;6.80;1.10;;;10.90;1.00;;;;;;5017111;28;20412;-71
2024/04/02 09:10:35;;;;;;;3.33;1.17;;;10.90;1.00;;;;;;5018493;28;20188;-74
2024/04/02 09:13:03;;;;;;;3.43;1.47;;;10.80;1.00;;;;;;5000324;28;20495;-70
2024/04/02 09:15:29;;;;;;;4.57;1.20;;;10.90;1.00;;;;;;4999203;28;20833;-70
2024/04/02 09:17:55;;;;;;;2.53;1.37;;;11.00;1.00;;;;;;5016311;28;20418;-70
2024/04/02 09:20:22;;;;;;;9.23;1.90;;;11.10;1.00;;;;;;5009473;28;20185;-70
2024/04/02 09:22:47;;;;;;;3.13;1.53;;;10.80;1.00;;;;;;5018832;28;20651;-70
2024/04/02 09:25:14;;;;;;;1.87;1.10;;;10.70;1.00;;;;;;5002469;28;20431;-70
2024/04/02 09:27:40;;;;;;;3.20;1.20;;;10.80;1.00;;;;;;5000371;28;20433;-70
2024/04/02 09:30:09;;;;;;;4.50;1.60;;;11.00;1.00;;;;;;5017396;28;20423;-69
2024/04/02 09:32:37;;;;;;;5.80;1.87;;;11.00;1.00;;;;;;5016937;28;20203;-71
2024/04/02 09:35:12;;;;;;;4.47;1.20;;;11.20;1.00;;;;;;5001266;28;20557;-69
2024/04/02 09:37:41;;;;;;;4.57;2.00;;;11.20;1.00;;;;;;5005135;28;20458;-68
2024/04/02 09:40:08;;;;;;;5.57;1.47;;;11.30;1.00;;;;;;5000794;28;20808;-69
2024/04/02 09:42:34;;;;;;;8.10;2.60;;;11.30;1.00;;;;;;5039801;23;20433;-67
2024/04/02 09:45:00;;;;;;;4.00;1.97;;;11.30;1.00;;;;;;5011885;28;20419;-67
2024/04/02 09:47:27;;;;;;;8.83;2.77;;;11.60;1.00;;;;;;5010675;28;20184;-68
2024/04/02 09:49:53;;;;;;;4.47;2.43;;;11.70;1.00;;;;;;5012363;28;20795;-68
2024/04/02 09:52:19;;;;;;;3.20;1.43;;;12.10;1.00;;;;;;5012084;28;20406;-70
2024/04/02 09:54:46;;;;;;;4.53;1.83;;;12.40;1.00;;;;;;5012247;28;20462;-67
2024/04/02 09:57:13;;;;;;;4.50;1.57;;;12.50;1.00;;;;;;5011753;28;20964;-67
2024/04/02 09:59:40;;;;;;;8.60;1.57;;;12.70;1.00;;;;;;5012004;28;20902;-68
2024/04/02 10:02:11;;;;;;;3.20;2.00;;;13.20;1.00;;;;;;5012166;28;20424;-67
2024/04/02 10:04:38;;;;;;;2.23;1.67;;;13.70;1.00;;;;;;5012197;28;20556;-69
2024/04/02 10:07:04;;;;;;;3.03;2.07;;;13.70;1.00;;;;;;5012172;28;20778;-68
2024/04/02 10:09:45;;;;;;;3.33;1.47;;;13.50;1.00;;;;;;5012176;28;20426;-68
2024/04/02 10:12:10;;;;;;;4.73;1.70;;;13.40;1.00;;;;;;5012626;28;20180;-68
2024/04/02 10:14:37;;;;;;;2.37;1.60;;;13.50;1.00;;;;;;4995540;28;20472;-69
2024/04/02 10:17:02;;;;;;;5.17;2.27;;;13.70;1.00;;;;;;4992977;28;20186;-68
2024/04/02 10:19:29;;;;;;;4.67;1.57;;;13.60;1.00;;;;;;4997422;28;20520;-68
2024/04/02 10:21:55;;;;;;;4.80;1.83;;;13.50;1.00;;;;;;5032222;28;20223;-68
2024/04/02 10:24:26;;;;;;;4.13;1.93;;;13.30;1.00;;;;;;5030407;28;20454;-68
2024/04/02 10:26:56;;;;;;;3.10;1.50;;;13.10;1.00;;;;;;5029970;28;20196;-72
2024/04/02 10:29:34;;;;;;;6.43;2.37;;;13.00;1.00;;;;;;5029858;28;20418;-68
2024/04/02 10:32:00;;;;;;;3.90;2.10;;;13.00;1.00;;;;;;5011434;28;20457;-68
2024/04/02 10:34:26;;;;;;;2.97;1.47;;;12.90;1.00;;;;;;5011405;28;20582;-67
2024/04/02 10:36:52;;;;;;;4.80;1.50;;;13.20;1.00;;;;;;5011667;28;20527;-68
2024/04/02 10:39:18;;;;;;;3.40;1.10;;;13.20;1.00;;;;;;5010670;28;20298;-68
2024/04/02 10:41:45;;;;;;;4.27;1.20;;;13.00;1.00;;;;;;5011305;28;20249;-68
2024/04/02 10:44:11;;;;;;;2.80;1.20;;;12.60;1.00;;;;;;5011314;28;20694;-68
2024/04/02 10:46:39;;;;;;;3.37;1.53;;;12.60;1.00;;;;;;5010177;28;20491;-68
2024/04/02 10:49:04;;;;;;;1.80;1.30;;;12.40;1.00;;;;;;5011271;28;20425;-68
2024/04/02 10:51:31;;;;;;;4.60;1.27;;;12.40;1.00;;;;;;5009362;28;20932;-68
2024/04/02 10:53:58;;;;;;;1.93;1.40;;;12.40;1.00;;;;;;5014388;28;20610;-69
2024/04/02 10:56:30;;;;;;;2.77;1.40;;;12.50;1.00;;;;;;5012331;28;20541;-68
2024/04/02 10:58:56;;;;;;;2.80;1.30;;;12.90;1.00;;;;;;5011189;28;20454;-69
2024/04/02 11:01:22;;;;;;;2.27;1.30;;;13.10;1.00;;;;;;5011005;28;20493;-69
2024/04/02 11:03:50;;;;;;;2.20;1.20;;;13.00;1.00;;;;;;5010886;28;20446;-68
2024/04/02 11:06:15;;;;;;;3.10;1.30;;;13.10;1.00;;;;;;5018115;28;20521;-68
2024/04/02 11:08:43;;;;;;;1.90;1.00;;;13.20;1.00;;;;;;5009174;28;20953;-68
2024/04/02 11:11:21;;;;;;;2.47;1.37;;;13.60;1.00;;;;;;5010905;28;20190;-68
2024/04/02 11:13:47;;;;;;;5.53;1.73;;;13.80;1.00;;;;;;5010750;28;20889;-68
2024/04/02 11:16:14;;;;;;;1.60;1.20;;;13.90;1.00;;;;;;5010867;28;20484;-68
2024/04/02 11:18:40;;;;;;;2.47;1.20;;;13.80;1.00;;;;;;5010290;28;20817;-68
2024/04/02 11:21:05;;;;;;;2.80;1.77;;;13.80;1.00;;;;;;5010606;28;20497;-68
2024/04/02 11:26:19;;;;;;;2.20;1.50;;;13.60;1.00;;;;;;5004832;28;20580;-68
2024/04/02 11:28:44;;;;;;;2.57;1.40;;;14.00;1.00;;;;;;4991014;28;20450;-68
2024/04/02 11:31:11;;;;;;;2.20;1.80;;;14.20;1.00;;;;;;4991646;28;20427;-69
2024/04/02 11:33:37;;;;;;;2.57;1.30;;;14.10;1.00;;;;;;4990661;28;20220;-68
2024/04/02 11:36:07;;;;;;;1.80;1.33;;;14.20;1.00;;;;;;5007126;28;20425;-69
2024/04/02 11:38:33;;;;;;;2.33;1.70;;;14.40;1.00;;;;;;5028151;28;20751;-69
2024/04/02 11:40:59;;;;;;;2.10;1.50;;;14.60;1.00;;;;;;5010645;28;20479;-69
2024/04/02 11:43:25;;;;;;;2.83;1.60;;;14.30;1.00;;;;;;5009032;28;20549;-69
2024/04/02 11:45:51;;;;;;;2.27;1.60;;;14.30;1.00;;;;;;5010438;28;20186;-68
2024/04/02 11:48:17;;;;;;;1.60;1.20;;;13.90;1.00;;;;;;5009066;28;20272;-68
2024/04/02 11:50:44;;;;;;;5.57;1.43;;;13.50;1.00;;;;;;5019932;28;20969;-68
2024/04/02 11:53:10;;;;;;;4.30;1.70;;;13.70;1.00;;;;;;5034340;28;20210;-68
2024/04/02 11:55:35;;;;;;;3.03;1.70;;;13.50;1.00;;;;;;5034174;28;20427;-68
2024/04/02 12:00:45;;;;;;;2.00;1.50;;;13.60;1.00;;;;;;5034113;28;20676;-67
2024/04/02 12:03:10;;;;;;;3.50;1.70;;;14.00;1.00;;;;;;5033769;28;20429;-67
2024/04/02 12:05:36;;;;;;;2.90;1.93;;;14.30;1.00;;;;;;5033093;28;20273;-70
2024/04/02 12:08:02;;;;;;;2.17;1.47;;;14.40;1.00;;;;;;5033511;28;20219;-69
2024/04/02 12:10:27;;;;;;;4.57;1.80;;;14.40;1.00;;;;;;5033417;28;20213;-67
2024/04/02 12:12:53;;;;;;;1.97;1.30;;;14.30;1.00;;;;;;5033371;28;20217;-67
2024/04/02 12:15:19;;;;;;;1.93;1.30;;;14.20;1.00;;;;;;5033074;28;20670;-69
2024/04/02 12:17:44;;;;;;;2.93;1.43;;;14.00;1.00;;;;;;5033354;28;20191;-67
2024/04/02 12:20:12;;;;;;;5.00;1.90;;;14.30;1.00;;;;;;5024678;28;20219;-69
2024/04/02 12:22:37;;;;;;;2.53;1.50;;;14.20;1.00;;;;;;5013620;28;20290;-68
2024/04/02 12:25:04;;;;;;;2.03;1.80;;;14.60;1.00;;;;;;5012083;28;20525;-68
2024/04/02 12:27:30;;;;;;;2.63;1.50;;;15.00;1.00;;;;;;5013576;28;20186;-68
2024/04/02 12:29:57;;;;;;;4.47;1.30;;;14.90;1.00;;;;;;5013224;28;20486;-68
2024/04/02 12:32:28;;;;;;;2.63;1.67;;;14.70;1.00;;;;;;5013318;28;20407;-67
2024/04/02 12:34:54;;;;;;;2.20;1.50;;;14.80;1.00;;;;;;5013543;28;20532;-68
2024/04/02 12:37:20;;;;;;;1.70;1.23;;;14.90;1.00;;;;;;5012365;28;20517;-70
2024/04/02 12:39:47;;;;;;;3.20;1.53;;;14.80;1.00;;;;;;5011631;28;20633;-70
2024/04/02 12:42:13;;;;;;;3.80;1.50;;;15.00;1.00;;;;;;5009709;28;20244;-70
2024/04/02 12:44:40;;;;;;;1.73;1.53;;;15.40;1.00;;;;;;5009377;28;20454;-71
2024/04/02 12:47:06;;;;;;;1.83;1.63;;;15.60;1.00;;;;;;4990890;28;20424;-70
2024/04/02 12:49:32;;;;;;;2.30;1.67;;;15.50;1.00;;;;;;5009797;28;20419;-70
2024/04/02 12:51:57;;;;;;;1.80;1.60;;;15.20;1.00;;;;;;5009218;28;20426;-70
2024/04/02 12:54:23;;;;;;;1.60;1.40;;;14.90;1.00;;;;;;5009612;28;20606;-69
2024/04/02 12:56:48;;;;;;;2.20;2.00;;;14.90;1.00;;;;;;5011566;28;20187;-69
2024/04/02 12:59:14;;;;;;;3.13;1.70;;;15.30;1.00;;;;;;5028251;28;20214;-70
2024/04/02 13:01:39;;;;;;;1.83;1.57;;;15.60;1.00;;;;;;5028969;28;20191;-69
2024/04/02 13:04:06;;;;;;;2.77;1.70;;;15.80;1.00;;;;;;5028354;28;20581;-69